sensor_id;sensor_type;location;lat;lon;timestamp;pressure;altitude;pressure_sealevel;temperature;humidity
78741;BME280;68062;48.726;9.370;2023-09-19T00:00:56;98385.06;;;16.23;100.00
78741;BME280;68062;48.726;9.370;2023-09-19T00:03:23;98398.16;;;16.20;100.00
78741;BME280;68062;48.726;9.370;2023-09-19T00:05:52;98381.88;;;16.15;100.00
78741;BME280;68062;48.726;9.370;2023-09-19T00:08:21;98372.75;;;16.01;100.00
78741;BME280;68062;48.726;9.370;2023-09-19T00:10:50;98394.09;;;16.11;100.00
78741;BME280;68062;48.726;9.370;2023-09-19T00:13:17;98412.91;;;16.18;100.00
78741;BME280;68062;48.726;9.370;2023-09-19T00:15:46;98415.19;;;16.29;100.00
78741;BME280;68062;48.726;9.370;2023-09-19T00:18:14;98382.72;;;16.15;100.00
78741;BME280;68062;48.726;9.370;2023-09-19T00:20:42;98422.72;;;16.37;100.00
78741;BME280;68062;48.726;9.370;2023-09-19T00:23:14;98418.09;;;16.18;100.00
78741;BME280;68062;48.726;9.370;2023-09-19T00:25:41;98421.38;;;16.25;100.00
78741;BME280;68062;48.726;9.370;2023-09-19T00:28:08;98426.72;;;16.47;100.00
78741;BME280;68062;48.726;9.370;2023-09-19T00:30:35;98419.50;;;16.57;100.00
78741;BME280;68062;48.726;9.370;2023-09-19T00:33:04;98432.91;;;16.43;100.00
78741;BME280;68062;48.726;9.370;2023-09-19T00:35:33;98429.47;;;16.42;100.00
78741;BME280;68062;48.726;9.370;2023-09-19T00:37:59;98430.56;;;16.35;100.00
78741;BME280;68062;48.726;9.370;2023-09-19T00:40:27;98433.53;;;16.23;100.00
78741;BME280;68062;48.726;9.370;2023-09-19T00:42:57;98426.94;;;16.12;100.00
78741;BME280;68062;48.726;9.370;2023-09-19T00:45:25;98433.03;;;16.10;100.00
78741;BME280;68062;48.726;9.370;2023-09-19T00:47:54;98388.72;;;15.89;100.00
78741;BME280;68062;48.726;9.370;2023-09-19T00:50:23;98408.97;;;16.04;100.00
78741;BME280;68062;48.726;9.370;2023-09-19T00:52:54;98427.84;;;16.10;100.00
78741;BME280;68062;48.726;9.370;2023-09-19T00:55:21;98426.38;;;16.31;100.00
78741;BME280;68062;48.726;9.370;2023-09-19T00:57:49;98428.09;;;16.30;100.00
78741;BME280;68062;48.726;9.370;2023-09-19T01:00:16;98429.94;;;16.55;100.00
78741;BME280;68062;48.726;9.370;2023-09-19T01:02:46;98433.88;;;16.40;100.00
78741;BME280;68062;48.726;9.370;2023-09-19T01:05:13;98421.09;;;16.34;100.00
78741;BME280;68062;48.726;9.370;2023-09-19T01:07:40;98432.44;;;16.30;100.00
78741;BME280;68062;48.726;9.370;2023-09-19T01:10:09;98433.25;;;16.32;100.00
78741;BME280;68062;48.726;9.370;2023-09-19T01:12:46;98441.16;;;16.27;100.00
78741;BME280;68062;48.726;9.370;2023-09-19T01:15:21;98443.53;;;16.35;100.00
78741;BME280;68062;48.726;9.370;2023-09-19T01:17:57;98444.44;;;16.34;100.00
78741;BME280;68062;48.726;9.370;2023-09-19T01:20:37;98434.97;;;16.31;100.00
78741;BME280;68062;48.726;9.370;2023-09-19T01:23:12;98446.78;;;16.42;100.00
78741;BME280;68062;48.726;9.370;2023-09-19T01:26:17;98443.81;;;16.26;100.00
78741;BME280;68062;48.726;9.370;2023-09-19T01:28:53;98440.88;;;16.37;100.00
78741;BME280;68062;48.726;9.370;2023-09-19T01:31:23;98419.09;;;16.42;100.00
78741;BME280;68062;48.726;9.370;2023-09-19T01:33:58;98402.03;;;16.35;100.00
78741;BME280;68062;48.726;9.370;2023-09-19T01:36:30;98436.66;;;16.34;100.00
78741;BME280;68062;48.726;9.370;2023-09-19T01:39:00;98440.19;;;16.31;100.00
78741;BME280;68062;48.726;9.370;2023-09-19T01:41:47;98445.63;;;16.22;100.00
78741;BME280;68062;48.726;9.370;2023-09-19T01:44:24;98442.59;;;16.38;100.00
78741;BME280;68062;48.726;9.370;2023-09-19T01:46:55;98442.06;;;16.26;100.00
78741;BME280;68062;48.726;9.370;2023-09-19T01:49:31;98449.81;;;16.28;100.00
78741;BME280;68062;48.726;9.370;2023-09-19T01:52:04;98455.00;;;16.28;100.00
78741;BME280;68062;48.726;9.370;2023-09-19T01:54:36;98461.91;;;16.27;100.00
78741;BME280;68062;48.726;9.370;2023-09-19T01:57:09;98460.19;;;16.28;100.00
78741;BME280;68062;48.726;9.370;2023-09-19T01:59:45;98465.22;;;16.32;100.00
78741;BME280;68062;48.726;9.370;2023-09-19T02:02:14;98463.31;;;16.39;100.00
78741;BME280;68062;48.726;9.370;2023-09-19T02:04:43;98461.63;;;16.37;100.00
78741;BME280;68062;48.726;9.370;2023-09-19T02:07:10;98466.97;;;16.60;100.00
78741;BME280;68062;48.726;9.370;2023-09-19T02:09:36;98471.56;;;16.52;100.00
78741;BME280;68062;48.726;9.370;2023-09-19T02:12:05;98473.50;;;16.45;100.00
78741;BME280;68062;48.726;9.370;2023-09-19T02:14:32;98474.50;;;16.41;100.00
78741;BME280;68062;48.726;9.370;2023-09-19T02:16:59;98436.88;;;16.26;100.00
78741;BME280;68062;48.726;9.370;2023-09-19T02:19:27;98490.88;;;16.43;100.00
78741;BME280;68062;48.726;9.370;2023-09-19T02:21:55;98488.38;;;16.40;100.00
78741;BME280;68062;48.726;9.370;2023-09-19T02:24:22;98492.09;;;16.60;100.00
78741;BME280;68062;48.726;9.370;2023-09-19T02:26:49;98485.13;;;16.62;100.00
78741;BME280;68062;48.726;9.370;2023-09-19T02:29:16;98492.56;;;16.73;100.00
78741;BME280;68062;48.726;9.370;2023-09-19T02:31:43;98487.47;;;16.70;100.00
78741;BME280;68062;48.726;9.370;2023-09-19T02:34:11;98488.50;;;16.64;100.00
78741;BME280;68062;48.726;9.370;2023-09-19T02:36:41;98501.25;;;16.43;100.00
78741;BME280;68062;48.726;9.370;2023-09-19T02:39:09;98495.63;;;16.29;100.00
78741;BME280;68062;48.726;9.370;2023-09-19T02:41:37;98494.75;;;16.28;100.00
78741;BME280;68062;48.726;9.370;2023-09-19T02:44:04;98487.06;;;16.25;100.00
78741;BME280;68062;48.726;9.370;2023-09-19T02:46:32;98485.78;;;16.10;100.00
78741;BME280;68062;48.726;9.370;2023-09-19T02:48:59;98491.31;;;16.28;100.00
78741;BME280;68062;48.726;9.370;2023-09-19T02:51:25;98493.91;;;16.28;100.00
78741;BME280;68062;48.726;9.370;2023-09-19T02:53:54;98494.91;;;16.24;100.00
78741;BME280;68062;48.726;9.370;2023-09-19T02:56:21;98472.00;;;15.77;100.00
78741;BME280;68062;48.726;9.370;2023-09-19T02:58:48;98490.44;;;15.66;100.00
78741;BME280;68062;48.726;9.370;2023-09-19T03:01:14;98487.72;;;15.37;100.00
78741;BME280;68062;48.726;9.370;2023-09-19T03:03:41;98495.50;;;15.37;100.00
78741;BME280;68062;48.726;9.370;2023-09-19T03:06:09;98496.31;;;15.72;100.00
78741;BME280;68062;48.726;9.370;2023-09-19T03:08:36;98496.91;;;15.82;100.00
78741;BME280;68062;48.726;9.370;2023-09-19T03:11:06;98504.91;;;15.40;100.00
78741;BME280;68062;48.726;9.370;2023-09-19T03:13:38;98505.88;;;15.36;100.00
78741;BME280;68062;48.726;9.370;2023-09-19T03:16:07;98506.19;;;15.58;100.00
78741;BME280;68062;48.726;9.370;2023-09-19T03:18:34;98508.41;;;15.72;100.00
78741;BME280;68062;48.726;9.370;2023-09-19T03:21:01;98501.59;;;15.68;100.00
78741;BME280;68062;48.726;9.370;2023-09-19T03:23:29;98504.41;;;15.60;100.00
78741;BME280;68062;48.726;9.370;2023-09-19T03:25:56;98504.34;;;15.62;100.00
78741;BME280;68062;48.726;9.370;2023-09-19T03:28:26;98500.88;;;15.96;100.00
78741;BME280;68062;48.726;9.370;2023-09-19T03:31:00;98497.78;;;16.13;100.00
78741;BME280;68062;48.726;9.370;2023-09-19T03:33:28;98496.28;;;16.06;100.00
78741;BME280;68062;48.726;9.370;2023-09-19T03:35:58;98496.72;;;15.90;100.00
78741;BME280;68062;48.726;9.370;2023-09-19T03:38:27;98497.94;;;15.77;100.00
78741;BME280;68062;48.726;9.370;2023-09-19T03:40:54;98498.50;;;15.86;100.00
78741;BME280;68062;48.726;9.370;2023-09-19T03:43:21;98502.25;;;16.08;100.00
78741;BME280;68062;48.726;9.370;2023-09-19T03:45:49;98494.63;;;16.33;100.00
78741;BME280;68062;48.726;9.370;2023-09-19T03:48:17;98495.00;;;16.49;100.00
78741;BME280;68062;48.726;9.370;2023-09-19T03:50:45;98496.06;;;16.43;100.00
78741;BME280;68062;48.726;9.370;2023-09-19T03:53:12;98497.78;;;16.43;100.00
78741;BME280;68062;48.726;9.370;2023-09-19T03:55:39;98503.25;;;16.33;100.00
78741;BME280;68062;48.726;9.370;2023-09-19T03:58:06;98495.25;;;16.41;100.00
78741;BME280;68062;48.726;9.370;2023-09-19T04:00:32;98493.50;;;16.12;100.00
78741;BME280;68062;48.726;9.370;2023-09-19T04:03:01;98498.78;;;16.09;100.00
78741;BME280;68062;48.726;9.370;2023-09-19T04:05:31;98511.09;;;16.02;100.00
78741;BME280;68062;48.726;9.370;2023-09-19T04:07:58;98506.72;;;16.02;100.00
78741;BME280;68062;48.726;9.370;2023-09-19T04:10:24;98506.53;;;15.77;100.00
78741;BME280;68062;48.726;9.370;2023-09-19T04:12:54;98505.97;;;15.66;100.00
78741;BME280;68062;48.726;9.370;2023-09-19T04:15:22;98499.00;;;15.69;100.00
78741;BME280;68062;48.726;9.370;2023-09-19T04:17:50;98501.53;;;16.02;100.00
78741;BME280;68062;48.726;9.370;2023-09-19T04:20:18;98509.78;;;15.85;100.00
78741;BME280;68062;48.726;9.370;2023-09-19T04:22:45;98522.25;;;15.71;100.00
78741;BME280;68062;48.726;9.370;2023-09-19T04:25:13;98518.84;;;15.69;100.00
78741;BME280;68062;48.726;9.370;2023-09-19T04:27:39;98517.22;;;15.66;100.00
78741;BME280;68062;48.726;9.370;2023-09-19T04:30:07;98495.38;;;15.42;100.00
78741;BME280;68062;48.726;9.370;2023-09-19T04:32:37;98509.88;;;15.49;100.00
78741;BME280;68062;48.726;9.370;2023-09-19T04:35:06;98520.88;;;15.57;100.00
78741;BME280;68062;48.726;9.370;2023-09-19T04:37:37;98517.94;;;15.71;100.00
78741;BME280;68062;48.726;9.370;2023-09-19T04:40:07;98533.84;;;15.57;100.00
78741;BME280;68062;48.726;9.370;2023-09-19T04:42:39;98525.72;;;15.37;100.00
78741;BME280;68062;48.726;9.370;2023-09-19T04:45:08;98529.91;;;15.42;100.00
78741;BME280;68062;48.726;9.370;2023-09-19T04:47:36;98529.94;;;15.41;100.00
78741;BME280;68062;48.726;9.370;2023-09-19T04:50:06;98530.72;;;15.44;100.00
78741;BME280;68062;48.726;9.370;2023-09-19T04:52:33;98532.75;;;15.33;100.00
78741;BME280;68062;48.726;9.370;2023-09-19T04:55:01;98536.66;;;15.48;100.00
78741;BME280;68062;48.726;9.370;2023-09-19T04:57:28;98534.06;;;15.50;100.00
78741;BME280;68062;48.726;9.370;2023-09-19T04:59:54;98529.38;;;15.64;100.00
78741;BME280;68062;48.726;9.370;2023-09-19T05:02:21;98526.88;;;15.59;100.00
78741;BME280;68062;48.726;9.370;2023-09-19T05:04:48;98534.34;;;15.72;100.00
78741;BME280;68062;48.726;9.370;2023-09-19T05:07:15;98540.63;;;15.63;100.00
78741;BME280;68062;48.726;9.370;2023-09-19T05:09:43;98549.22;;;15.64;100.00
78741;BME280;68062;48.726;9.370;2023-09-19T05:12:11;98549.56;;;15.84;100.00
78741;BME280;68062;48.726;9.370;2023-09-19T05:14:38;98548.66;;;15.85;100.00
78741;BME280;68062;48.726;9.370;2023-09-19T05:17:05;98552.22;;;15.83;100.00
78741;BME280;68062;48.726;9.370;2023-09-19T05:19:33;98554.06;;;15.78;100.00
78741;BME280;68062;48.726;9.370;2023-09-19T05:22:01;98560.69;;;15.89;100.00
78741;BME280;68062;48.726;9.370;2023-09-19T05:24:29;98568.25;;;15.97;100.00
78741;BME280;68062;48.726;9.370;2023-09-19T05:26:56;98574.94;;;16.06;100.00
78741;BME280;68062;48.726;9.370;2023-09-19T05:29:24;98577.06;;;15.92;100.00
78741;BME280;68062;48.726;9.370;2023-09-19T05:31:51;98581.66;;;15.80;100.00
78741;BME280;68062;48.726;9.370;2023-09-19T05:34:20;98584.41;;;15.74;100.00
78741;BME280;68062;48.726;9.370;2023-09-19T05:36:47;98588.47;;;15.50;100.00
78741;BME280;68062;48.726;9.370;2023-09-19T05:39:14;98586.91;;;15.42;100.00
78741;BME280;68062;48.726;9.370;2023-09-19T05:41:41;98587.53;;;15.52;100.00
78741;BME280;68062;48.726;9.370;2023-09-19T05:44:09;98593.44;;;15.57;100.00
78741;BME280;68062;48.726;9.370;2023-09-19T05:46:36;98550.91;;;15.32;100.00
78741;BME280;68062;48.726;9.370;2023-09-19T05:49:03;98592.38;;;15.66;100.00
78741;BME280;68062;48.726;9.370;2023-09-19T05:51:30;98597.22;;;15.44;100.00
78741;BME280;68062;48.726;9.370;2023-09-19T05:53:57;98594.78;;;15.38;100.00
78741;BME280;68062;48.726;9.370;2023-09-19T05:56:24;98604.19;;;15.42;100.00
78741;BME280;68062;48.726;9.370;2023-09-19T05:58:51;98605.06;;;15.41;100.00
78741;BME280;68062;48.726;9.370;2023-09-19T06:01:19;98598.91;;;15.47;100.00
78741;BME280;68062;48.726;9.370;2023-09-19T06:03:46;98600.78;;;15.40;100.00
78741;BME280;68062;48.726;9.370;2023-09-19T06:06:13;98610.25;;;15.42;100.00
78741;BME280;68062;48.726;9.370;2023-09-19T06:08:40;98609.19;;;15.50;100.00
78741;BME280;68062;48.726;9.370;2023-09-19T06:11:09;98624.56;;;15.57;100.00
78741;BME280;68062;48.726;9.370;2023-09-19T06:13:37;98635.00;;;15.54;100.00
78741;BME280;68062;48.726;9.370;2023-09-19T06:16:04;98640.25;;;15.51;100.00
78741;BME280;68062;48.726;9.370;2023-09-19T06:18:31;98637.63;;;15.53;100.00
78741;BME280;68062;48.726;9.370;2023-09-19T06:21:00;98642.00;;;15.51;100.00
78741;BME280;68062;48.726;9.370;2023-09-19T06:23:30;98644.97;;;15.34;100.00
78741;BME280;68062;48.726;9.370;2023-09-19T06:25:57;98603.41;;;15.00;100.00
78741;BME280;68062;48.726;9.370;2023-09-19T06:28:24;98657.72;;;15.04;100.00
78741;BME280;68062;48.726;9.370;2023-09-19T06:30:53;98659.00;;;14.85;100.00
78741;BME280;68062;48.726;9.370;2023-09-19T06:33:20;98665.19;;;14.78;100.00
78741;BME280;68062;48.726;9.370;2023-09-19T06:35:48;98671.25;;;14.77;100.00
78741;BME280;68062;48.726;9.370;2023-09-19T06:38:17;98666.97;;;14.75;100.00
78741;BME280;68062;48.726;9.370;2023-09-19T06:40:45;98680.84;;;14.72;100.00
78741;BME280;68062;48.726;9.370;2023-09-19T06:43:12;98651.03;;;14.51;100.00
78741;BME280;68062;48.726;9.370;2023-09-19T06:45:39;98679.06;;;14.73;100.00
78741;BME280;68062;48.726;9.370;2023-09-19T06:48:06;98680.84;;;14.72;100.00
78741;BME280;68062;48.726;9.370;2023-09-19T06:50:34;98678.81;;;14.86;100.00
78741;BME280;68062;48.726;9.370;2023-09-19T06:53:01;98682.19;;;14.90;100.00
78741;BME280;68062;48.726;9.370;2023-09-19T06:55:30;98683.53;;;15.08;100.00
78741;BME280;68062;48.726;9.370;2023-09-19T06:57:57;98688.59;;;15.14;100.00
78741;BME280;68062;48.726;9.370;2023-09-19T07:00:24;98690.31;;;15.14;100.00
78741;BME280;68062;48.726;9.370;2023-09-19T07:02:58;98684.59;;;15.39;100.00
78741;BME280;68062;48.726;9.370;2023-09-19T07:05:27;98684.00;;;15.65;100.00
78741;BME280;68062;48.726;9.370;2023-09-19T07:07:54;98692.00;;;15.92;100.00
78741;BME280;68062;48.726;9.370;2023-09-19T07:10:22;98695.41;;;16.29;100.00
78741;BME280;68062;48.726;9.370;2023-09-19T07:12:58;98686.66;;;16.65;100.00
78741;BME280;68062;48.726;9.370;2023-09-19T07:15:25;98689.69;;;16.81;100.00
78741;BME280;68062;48.726;9.370;2023-09-19T07:17:53;98700.72;;;17.19;100.00
78741;BME280;68062;48.726;9.370;2023-09-19T07:20:20;98691.16;;;17.76;100.00
78741;BME280;68062;48.726;9.370;2023-09-19T07:22:46;98697.84;;;18.61;100.00
78741;BME280;68062;48.726;9.370;2023-09-19T07:25:14;98700.22;;;18.67;95.30
78741;BME280;68062;48.726;9.370;2023-09-19T07:27:40;98715.63;;;18.74;98.52
78741;BME280;68062;48.726;9.370;2023-09-19T07:30:10;98717.09;;;18.57;97.97
78741;BME280;68062;48.726;9.370;2023-09-19T07:32:37;98709.78;;;18.18;96.32
78741;BME280;68062;48.726;9.370;2023-09-19T07:35:06;98720.00;;;17.69;100.00
78741;BME280;68062;48.726;9.370;2023-09-19T07:37:33;98713.09;;;17.94;100.00
78741;BME280;68062;48.726;9.370;2023-09-19T07:40:00;98710.81;;;18.12;99.65
78741;BME280;68062;48.726;9.370;2023-09-19T07:42:28;98710.78;;;17.85;100.00
78741;BME280;68062;48.726;9.370;2023-09-19T07:44:55;98711.41;;;17.93;100.00
78741;BME280;68062;48.726;9.370;2023-09-19T07:47:23;98713.00;;;17.98;97.29
78741;BME280;68062;48.726;9.370;2023-09-19T07:49:50;98721.16;;;18.41;94.29
78741;BME280;68062;48.726;9.370;2023-09-19T07:52:17;98723.91;;;18.36;95.84
78741;BME280;68062;48.726;9.370;2023-09-19T07:54:44;98723.56;;;18.94;92.44
78741;BME280;68062;48.726;9.370;2023-09-19T07:57:12;98723.66;;;18.67;89.87
78741;BME280;68062;48.726;9.370;2023-09-19T07:59:40;98727.84;;;19.21;87.16
78741;BME280;68062;48.726;9.370;2023-09-19T08:02:07;98717.66;;;20.04;84.04
78741;BME280;68062;48.726;9.370;2023-09-19T08:04:42;98726.94;;;21.13;78.26
78741;BME280;68062;48.726;9.370;2023-09-19T08:07:11;98724.50;;;21.83;76.71
78741;BME280;68062;48.726;9.370;2023-09-19T08:09:38;98725.47;;;20.86;74.92
78741;BME280;68062;48.726;9.370;2023-09-19T08:12:05;98734.47;;;20.19;78.68
78741;BME280;68062;48.726;9.370;2023-09-19T08:14:33;98727.69;;;20.75;76.56
78741;BME280;68062;48.726;9.370;2023-09-19T08:17:00;98735.44;;;20.16;78.93
78741;BME280;68062;48.726;9.370;2023-09-19T08:19:27;98730.41;;;20.11;80.21
78741;BME280;68062;48.726;9.370;2023-09-19T08:21:57;98728.56;;;19.93;81.11
78741;BME280;68062;48.726;9.370;2023-09-19T08:24:24;98728.34;;;19.97;79.91
78741;BME280;68062;48.726;9.370;2023-09-19T08:26:53;98728.50;;;20.36;77.36
78741;BME280;68062;48.726;9.370;2023-09-19T08:29:21;98724.84;;;20.61;76.39
78741;BME280;68062;48.726;9.370;2023-09-19T08:31:54;98720.31;;;22.16;71.94
78741;BME280;68062;48.726;9.370;2023-09-19T08:34:21;98722.09;;;23.80;63.51
78741;BME280;68062;48.726;9.370;2023-09-19T08:36:50;98725.31;;;24.47;61.51
78741;BME280;68062;48.726;9.370;2023-09-19T08:39:19;98720.91;;;23.86;63.95
78741;BME280;68062;48.726;9.370;2023-09-19T08:41:46;98721.00;;;23.85;60.73
78741;BME280;68062;48.726;9.370;2023-09-19T08:44:13;98727.47;;;22.30;68.66
78741;BME280;68062;48.726;9.370;2023-09-19T08:46:41;98729.72;;;22.20;73.47
78741;BME280;68062;48.726;9.370;2023-09-19T08:49:13;98732.44;;;23.19;65.01
78741;BME280;68062;48.726;9.370;2023-09-19T08:51:53;98729.56;;;23.08;65.68
78741;BME280;68062;48.726;9.370;2023-09-19T08:54:28;98738.03;;;21.74;70.07
78741;BME280;68062;48.726;9.370;2023-09-19T08:57:00;98736.88;;;21.05;72.02
78741;BME280;68062;48.726;9.370;2023-09-19T08:59:32;98738.66;;;20.43;76.78
78741;BME280;68062;48.726;9.370;2023-09-19T09:02:01;98745.78;;;19.29;84.60
78741;BME280;68062;48.726;9.370;2023-09-19T09:04:29;98736.13;;;19.54;78.22
78741;BME280;68062;48.726;9.370;2023-09-19T09:06:56;98739.13;;;19.67;78.45
78741;BME280;68062;48.726;9.370;2023-09-19T09:09:23;98744.59;;;18.64;76.44
78741;BME280;68062;48.726;9.370;2023-09-19T09:11:51;98744.47;;;18.44;78.05
78741;BME280;68062;48.726;9.370;2023-09-19T09:14:22;98745.91;;;18.52;77.73
78741;BME280;68062;48.726;9.370;2023-09-19T09:16:50;98743.19;;;18.30;80.59
78741;BME280;68062;48.726;9.370;2023-09-19T09:19:17;98753.59;;;18.30;80.06
78741;BME280;68062;48.726;9.370;2023-09-19T09:21:50;98743.91;;;18.35;78.94
78741;BME280;68062;48.726;9.370;2023-09-19T09:24:26;98758.53;;;18.63;77.12
78741;BME280;68062;48.726;9.370;2023-09-19T09:26:55;98763.78;;;18.87;76.66
78741;BME280;68062;48.726;9.370;2023-09-19T09:29:40;98755.56;;;18.74;78.85
78741;BME280;68062;48.726;9.370;2023-09-19T09:32:17;98758.41;;;19.63;76.30
78741;BME280;68062;48.726;9.370;2023-09-19T09:34:45;98749.38;;;20.15;73.40
78741;BME280;68062;48.726;9.370;2023-09-19T09:37:13;98741.63;;;20.13;70.19
78741;BME280;68062;48.726;9.370;2023-09-19T09:39:49;98746.09;;;20.53;69.52
78741;BME280;68062;48.726;9.370;2023-09-19T09:42:30;98742.88;;;20.25;66.70
78741;BME280;68062;48.726;9.370;2023-09-19T09:45:16;98751.69;;;20.43;65.46
78741;BME280;68062;48.726;9.370;2023-09-19T09:47:44;98749.91;;;20.65;63.46
78741;BME280;68062;48.726;9.370;2023-09-19T09:50:26;98747.13;;;20.69;64.00
78741;BME280;68062;48.726;9.370;2023-09-19T09:53:19;98751.59;;;20.04;66.17
78741;BME280;68062;48.726;9.370;2023-09-19T09:56:00;98747.44;;;20.20;62.05
78741;BME280;68062;48.726;9.370;2023-09-19T09:58:29;98748.34;;;20.61;59.21
78741;BME280;68062;48.726;9.370;2023-09-19T10:00:59;98748.69;;;21.52;58.46
78741;BME280;68062;48.726;9.370;2023-09-19T10:03:33;98749.59;;;20.72;60.91
78741;BME280;68062;48.726;9.370;2023-09-19T10:06:06;98752.28;;;19.64;60.88
78741;BME280;68062;48.726;9.370;2023-09-19T10:09:05;98745.28;;;19.87;59.67
78741;BME280;68062;48.726;9.370;2023-09-19T10:11:43;98747.41;;;19.99;62.00
78741;BME280;68062;48.726;9.370;2023-09-19T10:14:15;98749.59;;;19.66;64.03
78741;BME280;68062;48.726;9.370;2023-09-19T10:16:46;98744.13;;;19.94;59.71
78741;BME280;68062;48.726;9.370;2023-09-19T10:19:16;98741.13;;;19.83;58.13
78741;BME280;68062;48.726;9.370;2023-09-19T10:21:49;98745.75;;;20.40;57.73
78741;BME280;68062;48.726;9.370;2023-09-19T10:24:17;98740.84;;;21.13;56.17
78741;BME280;68062;48.726;9.370;2023-09-19T10:26:45;98712.97;;;21.31;55.07
78741;BME280;68062;48.726;9.370;2023-09-19T10:29:17;98738.94;;;21.92;53.06
78741;BME280;68062;48.726;9.370;2023-09-19T10:31:47;98710.25;;;20.96;54.21
78741;BME280;68062;48.726;9.370;2023-09-19T10:34:14;98737.84;;;21.21;55.04
78741;BME280;68062;48.726;9.370;2023-09-19T10:36:45;98728.03;;;20.88;56.12
78741;BME280;68062;48.726;9.370;2023-09-19T10:39:14;98732.78;;;20.38;55.39
78741;BME280;68062;48.726;9.370;2023-09-19T10:41:49;98715.91;;;21.06;54.12
78741;BME280;68062;48.726;9.370;2023-09-19T10:44:23;98729.09;;;21.97;51.75
78741;BME280;68062;48.726;9.370;2023-09-19T10:46:52;98700.03;;;22.55;49.72
78741;BME280;68062;48.726;9.370;2023-09-19T10:49:19;98725.00;;;23.76;47.84
78741;BME280;68062;48.726;9.370;2023-09-19T10:51:49;98743.50;;;23.26;48.01
78741;BME280;68062;48.726;9.370;2023-09-19T10:54:23;98737.63;;;23.21;48.05
78741;BME280;68062;48.726;9.370;2023-09-19T10:56:53;98741.78;;;22.91;48.23
78741;BME280;68062;48.726;9.370;2023-09-19T10:59:25;98732.66;;;22.99;47.21
78741;BME280;68062;48.726;9.370;2023-09-19T11:02:15;98706.75;;;23.42;46.61
78741;BME280;68062;48.726;9.370;2023-09-19T11:04:42;98718.13;;;24.79;45.12
78741;BME280;68062;48.726;9.370;2023-09-19T11:07:12;98714.03;;;24.45;44.87
78741;BME280;68062;48.726;9.370;2023-09-19T11:09:45;98691.59;;;24.68;44.47
78741;BME280;68062;48.726;9.370;2023-09-19T11:12:12;98703.34;;;24.03;46.44
78741;BME280;68062;48.726;9.370;2023-09-19T11:15:03;98693.47;;;23.45;47.01
78741;BME280;68062;48.726;9.370;2023-09-19T11:17:33;98699.41;;;22.83;47.96
78741;BME280;68062;48.726;9.370;2023-09-19T11:20:24;98700.78;;;23.22;47.00
78741;BME280;68062;48.726;9.370;2023-09-19T11:23:23;98702.03;;;22.32;49.67
78741;BME280;68062;48.726;9.370;2023-09-19T11:25:53;98689.03;;;22.48;48.96
78741;BME280;68062;48.726;9.370;2023-09-19T11:28:33;98687.69;;;22.39;49.07
78741;BME280;68062;48.726;9.370;2023-09-19T11:34:42;98684.28;;;23.69;47.33
78741;BME280;68062;48.726;9.370;2023-09-19T11:40:36;98670.75;;;24.50;43.86
78741;BME280;68062;48.726;9.370;2023-09-19T11:43:33;98670.22;;;24.89;44.57
78741;BME280;68062;48.726;9.370;2023-09-19T11:46:04;98664.88;;;24.47;43.94
78741;BME280;68062;48.726;9.370;2023-09-19T11:48:31;98682.63;;;23.51;45.91
78741;BME280;68062;48.726;9.370;2023-09-19T11:50:59;98676.53;;;23.81;45.21
78741;BME280;68062;48.726;9.370;2023-09-19T11:53:33;98677.25;;;24.30;45.53
78741;BME280;68062;48.726;9.370;2023-09-19T11:56:04;98678.00;;;25.05;43.35
78741;BME280;68062;48.726;9.370;2023-09-19T11:58:32;98664.50;;;24.96;41.85
78741;BME280;68062;48.726;9.370;2023-09-19T12:01:00;98675.00;;;24.96;43.56
78741;BME280;68062;48.726;9.370;2023-09-19T12:03:29;98671.63;;;25.64;41.43
78741;BME280;68062;48.726;9.370;2023-09-19T12:05:59;98664.09;;;25.45;43.52
78741;BME280;68062;48.726;9.370;2023-09-19T12:08:28;98668.78;;;25.67;41.81
78741;BME280;68062;48.726;9.370;2023-09-19T12:10:55;98661.19;;;26.03;41.99
78741;BME280;68062;48.726;9.370;2023-09-19T12:13:22;98662.78;;;24.23;45.09
78741;BME280;68062;48.726;9.370;2023-09-19T12:15:49;98657.25;;;24.42;45.00
78741;BME280;68062;48.726;9.370;2023-09-19T12:18:26;98661.94;;;24.51;44.71
78741;BME280;68062;48.726;9.370;2023-09-19T12:20:53;98657.97;;;25.30;42.73
78741;BME280;68062;48.726;9.370;2023-09-19T12:23:22;98647.22;;;24.78;44.00
78741;BME280;68062;48.726;9.370;2023-09-19T12:25:49;98659.94;;;25.68;42.56
78741;BME280;68062;48.726;9.370;2023-09-19T12:28:19;98657.56;;;25.78;42.58
78741;BME280;68062;48.726;9.370;2023-09-19T12:30:47;98636.03;;;26.24;41.86
78741;BME280;68062;48.726;9.370;2023-09-19T12:33:16;98645.50;;;25.33;43.67
78741;BME280;68062;48.726;9.370;2023-09-19T12:35:45;98633.06;;;25.35;43.36
78741;BME280;68062;48.726;9.370;2023-09-19T12:38:24;98626.75;;;27.43;40.51
78741;BME280;68062;48.726;9.370;2023-09-19T12:40:52;98636.63;;;27.77;40.50
78741;BME280;68062;48.726;9.370;2023-09-19T12:43:19;98624.19;;;29.04;37.21
78741;BME280;68062;48.726;9.370;2023-09-19T12:45:47;98636.13;;;28.99;37.73
78741;BME280;68062;48.726;9.370;2023-09-19T12:48:18;98642.97;;;28.22;38.38
78741;BME280;68062;48.726;9.370;2023-09-19T12:51:00;98633.94;;;26.67;40.80
78741;BME280;68062;48.726;9.370;2023-09-19T12:53:32;98612.06;;;27.52;39.46
78741;BME280;68062;48.726;9.370;2023-09-19T12:56:01;98621.09;;;28.19;37.90
78741;BME280;68062;48.726;9.370;2023-09-19T12:58:31;98621.25;;;29.19;36.59
78741;BME280;68062;48.726;9.370;2023-09-19T13:01:00;98615.88;;;29.95;34.73
78741;BME280;68062;48.726;9.370;2023-09-19T13:03:28;98625.59;;;27.95;38.86
78741;BME280;68062;48.726;9.370;2023-09-19T13:06:00;98610.28;;;28.23;37.53
78741;BME280;68062;48.726;9.370;2023-09-19T13:08:30;98628.56;;;28.94;36.53
78741;BME280;68062;48.726;9.370;2023-09-19T13:11:07;98609.47;;;28.56;36.96
78741;BME280;68062;48.726;9.370;2023-09-19T13:13:40;98609.56;;;28.66;36.72
78741;BME280;68062;48.726;9.370;2023-09-19T13:16:09;98578.78;;;28.76;36.73